sensor_id;sensor_type;location;lat;lon;timestamp;pressure;altitude;pressure_sealevel;temperature;humidity
79331;BME280;68797;49.782;19.054;2023-05-07T00:00:47;97323.38;;;11.57;77.13
79331;BME280;68797;49.782;19.054;2023-05-07T00:03:20;97327.56;;;11.64;76.50
79331;BME280;68797;49.782;19.054;2023-05-07T00:05:47;97328.63;;;11.58;76.21
79331;BME280;68797;49.782;19.054;2023-05-07T00:08:13;97325.53;;;11.46;76.50
79331;BME280;68797;49.782;19.054;2023-05-07T00:10:40;97328.13;;;11.47;77.31
79331;BME280;68797;49.782;19.054;2023-05-07T00:13:06;97330.72;;;11.24;77.21
79331;BME280;68797;49.782;19.054;2023-05-07T00:15:33;97319.03;;;11.28;77.40
79331;BME280;68797;49.782;19.054;2023-05-07T00:17:59;97328.44;;;11.38;77.18
79331;BME280;68797;49.782;19.054;2023-05-07T00:20:25;97332.78;;;11.41;76.69
79331;BME280;68797;49.782;19.054;2023-05-07T00:22:51;97333.16;;;11.30;76.54
79331;BME280;68797;49.782;19.054;2023-05-07T00:25:18;97334.50;;;11.42;77.17
79331;BME280;68797;49.782;19.054;2023-05-07T00:27:45;97328.38;;;11.40;76.38
79331;BME280;68797;49.782;19.054;2023-05-07T00:30:12;97326.00;;;11.32;76.56
79331;BME280;68797;49.782;19.054;2023-05-07T00:32:38;97332.91;;;11.38;76.74
79331;BME280;68797;49.782;19.054;2023-05-07T00:35:05;97323.94;;;11.40;75.98
79331;BME280;68797;49.782;19.054;2023-05-07T00:37:32;97314.41;;;11.34;76.45
79331;BME280;68797;49.782;19.054;2023-05-07T00:39:58;97332.78;;;11.41;75.72
79331;BME280;68797;49.782;19.054;2023-05-07T00:42:24;97330.28;;;11.36;75.63
79331;BME280;68797;49.782;19.054;2023-05-07T00:44:51;97314.09;;;11.17;75.43
79331;BME280;68797;49.782;19.054;2023-05-07T00:47:17;97326.16;;;11.27;76.47
79331;BME280;68797;49.782;19.054;2023-05-07T00:49:44;97327.94;;;11.27;76.86
79331;BME280;68797;49.782;19.054;2023-05-07T00:52:13;97336.78;;;11.27;76.80
79331;BME280;68797;49.782;19.054;2023-05-07T00:54:40;97334.19;;;11.26;75.94
79331;BME280;68797;49.782;19.054;2023-05-07T00:57:09;97338.69;;;11.24;76.15
79331;BME280;68797;49.782;19.054;2023-05-07T00:59:35;97327.19;;;11.23;75.63
79331;BME280;68797;49.782;19.054;2023-05-07T01:02:02;97333.47;;;11.21;75.12
79331;BME280;68797;49.782;19.054;2023-05-07T01:04:28;97341.44;;;11.21;75.67
79331;BME280;68797;49.782;19.054;2023-05-07T01:06:55;97348.28;;;11.28;75.65
79331;BME280;68797;49.782;19.054;2023-05-07T01:09:23;97338.91;;;11.16;75.30
79331;BME280;68797;49.782;19.054;2023-05-07T01:11:50;97338.06;;;11.16;75.17
79331;BME280;68797;49.782;19.054;2023-05-07T01:14:18;97344.13;;;11.19;75.95
79331;BME280;68797;49.782;19.054;2023-05-07T01:16:45;97339.09;;;11.12;75.76
79331;BME280;68797;49.782;19.054;2023-05-07T01:19:12;97347.81;;;11.15;75.57
79331;BME280;68797;49.782;19.054;2023-05-07T01:21:48;97344.44;;;11.10;75.00
79331;BME280;68797;49.782;19.054;2023-05-07T01:24:18;97339.19;;;11.09;75.29
79331;BME280;68797;49.782;19.054;2023-05-07T01:26:44;97342.59;;;11.12;75.40
79331;BME280;68797;49.782;19.054;2023-05-07T01:29:13;97339.09;;;11.12;76.08
79331;BME280;68797;49.782;19.054;2023-05-07T01:31:41;97343.72;;;11.05;75.90
79331;BME280;68797;49.782;19.054;2023-05-07T01:34:09;97342.09;;;11.01;76.55
79331;BME280;68797;49.782;19.054;2023-05-07T01:36:39;97342.66;;;11.11;76.19
79331;BME280;68797;49.782;19.054;2023-05-07T01:39:08;97345.09;;;11.17;75.87
79331;BME280;68797;49.782;19.054;2023-05-07T01:41:35;97328.91;;;10.98;75.80
79331;BME280;68797;49.782;19.054;2023-05-07T01:44:03;97342.13;;;10.99;75.55
79331;BME280;68797;49.782;19.054;2023-05-07T01:46:30;97338.75;;;10.94;76.54
79331;BME280;68797;49.782;19.054;2023-05-07T01:48:57;97348.41;;;10.97;75.87
79331;BME280;68797;49.782;19.054;2023-05-07T01:51:24;97346.88;;;10.90;76.06
79331;BME280;68797;49.782;19.054;2023-05-07T01:53:52;97353.97;;;10.89;76.63
79331;BME280;68797;49.782;19.054;2023-05-07T01:56:20;97355.66;;;10.92;77.26
79331;BME280;68797;49.782;19.054;2023-05-07T01:58:47;97345.91;;;10.92;76.87
79331;BME280;68797;49.782;19.054;2023-05-07T02:01:13;97346.63;;;10.97;76.83
79331;BME280;68797;49.782;19.054;2023-05-07T02:03:40;97349.59;;;10.88;76.53
79331;BME280;68797;49.782;19.054;2023-05-07T02:06:13;97341.69;;;10.85;76.85
79331;BME280;68797;49.782;19.054;2023-05-07T02:08:40;97349.75;;;10.82;77.15
79331;BME280;68797;49.782;19.054;2023-05-07T02:11:06;97327.13;;;10.70;77.12
79331;BME280;68797;49.782;19.054;2023-05-07T02:13:34;97343.88;;;10.72;76.75
79331;BME280;68797;49.782;19.054;2023-05-07T02:16:01;97350.03;;;10.45;76.17
79331;BME280;68797;49.782;19.054;2023-05-07T02:18:28;97349.78;;;10.23;77.43
79331;BME280;68797;49.782;19.054;2023-05-07T02:20:54;97345.00;;;10.36;77.24
79331;BME280;68797;49.782;19.054;2023-05-07T02:23:20;97340.34;;;10.44;76.94
79331;BME280;68797;49.782;19.054;2023-05-07T02:25:46;97341.19;;;10.44;75.76
79331;BME280;68797;49.782;19.054;2023-05-07T02:28:13;97355.22;;;10.48;75.99
79331;BME280;68797;49.782;19.054;2023-05-07T02:30:45;97346.31;;;10.51;75.83
79331;BME280;68797;49.782;19.054;2023-05-07T02:33:11;97345.94;;;10.63;75.49
79331;BME280;68797;49.782;19.054;2023-05-07T02:35:40;97339.84;;;10.59;75.65
79331;BME280;68797;49.782;19.054;2023-05-07T02:38:06;97337.25;;;10.58;75.69
79331;BME280;68797;49.782;19.054;2023-05-07T02:40:34;97339.38;;;10.46;75.80
79331;BME280;68797;49.782;19.054;2023-05-07T02:43:05;97340.09;;;10.52;75.77
79331;BME280;68797;49.782;19.054;2023-05-07T02:45:32;97337.84;;;10.38;75.33
79331;BME280;68797;49.782;19.054;2023-05-07T02:48:00;97346.16;;;10.26;76.49
79331;BME280;68797;49.782;19.054;2023-05-07T02:50:26;97342.94;;;10.14;76.37
79331;BME280;68797;49.782;19.054;2023-05-07T02:52:54;97343.63;;;10.23;76.62
79331;BME280;68797;49.782;19.054;2023-05-07T02:55:21;97333.34;;;10.10;76.37
79331;BME280;68797;49.782;19.054;2023-05-07T02:57:47;97341.97;;;10.17;76.80
79331;BME280;68797;49.782;19.054;2023-05-07T03:00:16;97350.06;;;10.12;76.71
79331;BME280;68797;49.782;19.054;2023-05-07T03:02:51;97347.28;;;10.17;76.87
79331;BME280;68797;49.782;19.054;2023-05-07T03:05:18;97337.13;;;10.02;77.22
79331;BME280;68797;49.782;19.054;2023-05-07T03:07:44;97349.28;;;10.09;77.25
79331;BME280;68797;49.782;19.054;2023-05-07T03:10:12;97349.88;;;10.18;77.53
79331;BME280;68797;49.782;19.054;2023-05-07T03:12:39;97346.28;;;10.23;77.83
79331;BME280;68797;49.782;19.054;2023-05-07T03:15:05;97351.47;;;10.26;77.62
79331;BME280;68797;49.782;19.054;2023-05-07T03:17:32;97356.69;;;10.29;77.19
79331;BME280;68797;49.782;19.054;2023-05-07T03:19:58;97349.84;;;10.20;77.33
79331;BME280;68797;49.782;19.054;2023-05-07T03:22:25;97356.44;;;10.05;77.90
79331;BME280;68797;49.782;19.054;2023-05-07T03:24:51;97361.53;;;10.13;77.56
79331;BME280;68797;49.782;19.054;2023-05-07T03:27:17;97364.16;;;10.14;77.84
79331;BME280;68797;49.782;19.054;2023-05-07T03:29:44;97365.06;;;10.13;77.92
79331;BME280;68797;49.782;19.054;2023-05-07T03:32:11;97365.19;;;10.09;78.25
79331;BME280;68797;49.782;19.054;2023-05-07T03:34:37;97369.59;;;10.10;78.18
79331;BME280;68797;49.782;19.054;2023-05-07T03:37:03;97376.44;;;10.17;78.28
79331;BME280;68797;49.782;19.054;2023-05-07T03:39:29;97369.88;;;9.99;78.19
79331;BME280;68797;49.782;19.054;2023-05-07T03:41:57;97384.44;;;10.15;77.82
79331;BME280;68797;49.782;19.054;2023-05-07T03:44:24;97371.31;;;10.11;76.88
79331;BME280;68797;49.782;19.054;2023-05-07T03:46:51;97369.59;;;10.08;77.16
79331;BME280;68797;49.782;19.054;2023-05-07T03:49:17;97363.31;;;10.12;77.23
79331;BME280;68797;49.782;19.054;2023-05-07T03:51:44;97385.09;;;10.25;77.35
79331;BME280;68797;49.782;19.054;2023-05-07T03:54:10;97377.41;;;10.14;77.54
79331;BME280;68797;49.782;19.054;2023-05-07T03:56:42;97383.41;;;10.23;77.84
79331;BME280;68797;49.782;19.054;2023-05-07T03:59:08;97398.25;;;10.28;76.53
79331;BME280;68797;49.782;19.054;2023-05-07T04:01:34;97381.38;;;10.31;76.64
79331;BME280;68797;49.782;19.054;2023-05-07T04:04:01;97394.69;;;10.29;76.79
79331;BME280;68797;49.782;19.054;2023-05-07T04:06:28;97397.53;;;10.23;76.86
79331;BME280;68797;49.782;19.054;2023-05-07T04:08:54;97396.66;;;10.23;76.90
79331;BME280;68797;49.782;19.054;2023-05-07T04:11:20;97397.66;;;10.17;77.24
79331;BME280;68797;49.782;19.054;2023-05-07T04:13:47;97394.03;;;10.21;77.44
79331;BME280;68797;49.782;19.054;2023-05-07T04:16:14;97400.22;;;10.22;77.34
79331;BME280;68797;49.782;19.054;2023-05-07T04:18:41;97395.81;;;10.19;76.96
79331;BME280;68797;49.782;19.054;2023-05-07T04:21:15;97408.31;;;10.15;77.13
79331;BME280;68797;49.782;19.054;2023-05-07T04:23:41;97410.94;;;10.15;77.14
79331;BME280;68797;49.782;19.054;2023-05-07T04:26:10;97397.06;;;10.06;77.14
79331;BME280;68797;49.782;19.054;2023-05-07T04:28:40;97415.56;;;10.09;76.91
79331;BME280;68797;49.782;19.054;2023-05-07T04:31:07;97422.72;;;10.05;76.71
79331;BME280;68797;49.782;19.054;2023-05-07T04:33:35;97419.50;;;9.94;77.10
79331;BME280;68797;49.782;19.054;2023-05-07T04:36:03;97421.41;;;9.89;77.67
79331;BME280;68797;49.782;19.054;2023-05-07T04:38:31;97430.91;;;9.96;78.29
79331;BME280;68797;49.782;19.054;2023-05-07T04:41:05;97435.25;;;10.00;77.87
79331;BME280;68797;49.782;19.054;2023-05-07T04:43:34;97439.69;;;10.00;77.47
79331;BME280;68797;49.782;19.054;2023-05-07T04:46:00;97446.63;;;10.04;77.65
79331;BME280;68797;49.782;19.054;2023-05-07T04:48:27;97449.41;;;9.99;76.93
79331;BME280;68797;49.782;19.054;2023-05-07T04:50:55;97448.56;;;9.97;77.43
79331;BME280;68797;49.782;19.054;2023-05-07T04:53:21;97450.28;;;10.00;77.80
79331;BME280;68797;49.782;19.054;2023-05-07T04:55:55;97453.84;;;9.99;77.38
79331;BME280;68797;49.782;19.054;2023-05-07T04:58:23;97439.16;;;9.85;77.58
79331;BME280;68797;49.782;19.054;2023-05-07T05:00:50;97460.16;;;9.93;77.52
79331;BME280;68797;49.782;19.054;2023-05-07T05:03:16;97458.34;;;9.95;76.84
79331;BME280;68797;49.782;19.054;2023-05-07T05:05:43;97453.72;;;10.03;77.85
79331;BME280;68797;49.782;19.054;2023-05-07T05:08:09;97447.69;;;9.97;76.26
79331;BME280;68797;49.782;19.054;2023-05-07T05:10:38;97449.41;;;9.99;77.35
79331;BME280;68797;49.782;19.054;2023-05-07T05:13:05;97463.41;;;10.04;77.72
79331;BME280;68797;49.782;19.054;2023-05-07T05:15:32;97460.66;;;10.07;77.44
79331;BME280;68797;49.782;19.054;2023-05-07T05:17:58;97468.47;;;10.13;77.12
79331;BME280;68797;49.782;19.054;2023-05-07T05:20:24;97462.16;;;10.17;76.76
79331;BME280;68797;49.782;19.054;2023-05-07T05:22:50;97461.28;;;10.17;76.72
79331;BME280;68797;49.782;19.054;2023-05-07T05:25:17;97472.63;;;10.24;76.25
79331;BME280;68797;49.782;19.054;2023-05-07T05:27:43;97477.91;;;10.25;76.79
79331;BME280;68797;49.782;19.054;2023-05-07T05:30:10;97467.38;;;10.22;76.35
79331;BME280;68797;49.782;19.054;2023-05-07T05:32:38;97474.38;;;10.25;76.53
79331;BME280;68797;49.782;19.054;2023-05-07T05:35:05;97474.53;;;10.17;76.62
79331;BME280;68797;49.782;19.054;2023-05-07T05:37:31;97482.69;;;10.11;77.27
79331;BME280;68797;49.782;19.054;2023-05-07T05:40:00;97478.88;;;10.21;77.34
79331;BME280;68797;49.782;19.054;2023-05-07T05:42:28;97481.59;;;10.18;76.58
79331;BME280;68797;49.782;19.054;2023-05-07T05:44:55;97479.78;;;10.20;77.06
79331;BME280;68797;49.782;19.054;2023-05-07T05:47:22;97479.22;;;10.07;77.08
79331;BME280;68797;49.782;19.054;2023-05-07T05:49:49;97466.09;;;10.03;77.28
79331;BME280;68797;49.782;19.054;2023-05-07T05:52:16;97468.59;;;10.09;77.66
79331;BME280;68797;49.782;19.054;2023-05-07T05:54:43;97482.53;;;10.15;77.42
79331;BME280;68797;49.782;19.054;2023-05-07T05:57:09;97485.00;;;10.25;76.82
79331;BME280;68797;49.782;19.054;2023-05-07T05:59:36;97486.84;;;10.19;77.21
79331;BME280;68797;49.782;19.054;2023-05-07T06:02:02;97468.59;;;10.07;76.96
79331;BME280;68797;49.782;19.054;2023-05-07T06:04:29;97480.72;;;10.17;77.46
79331;BME280;68797;49.782;19.054;2023-05-07T06:06:55;97488.03;;;10.08;76.55
79331;BME280;68797;49.782;19.054;2023-05-07T06:09:24;97491.66;;;10.05;77.55
79331;BME280;68797;49.782;19.054;2023-05-07T06:11:50;97499.88;;;9.95;77.37
79331;BME280;68797;49.782;19.054;2023-05-07T06:14:17;97487.16;;;10.07;77.86
79331;BME280;68797;49.782;19.054;2023-05-07T06:16:44;97494.19;;;10.10;77.88
79331;BME280;68797;49.782;19.054;2023-05-07T06:19:10;97490.88;;;10.02;77.97
79331;BME280;68797;49.782;19.054;2023-05-07T06:21:39;97496.84;;;10.08;77.81
79331;BME280;68797;49.782;19.054;2023-05-07T06:24:06;97498.78;;;10.03;77.52
79331;BME280;68797;49.782;19.054;2023-05-07T06:26:33;97509.34;;;10.05;77.63
79331;BME280;68797;49.782;19.054;2023-05-07T06:29:13;97506.13;;;9.92;77.57
79331;BME280;68797;49.782;19.054;2023-05-07T06:31:41;97506.88;;;9.99;77.28
79331;BME280;68797;49.782;19.054;2023-05-07T06:34:09;97514.09;;;9.92;77.34
79331;BME280;68797;49.782;19.054;2023-05-07T06:36:37;97517.47;;;9.97;77.71
79331;BME280;68797;49.782;19.054;2023-05-07T06:39:13;97511.84;;;9.75;79.02
79331;BME280;68797;49.782;19.054;2023-05-07T06:41:39;97518.22;;;9.68;79.06
79331;BME280;68797;49.782;19.054;2023-05-07T06:44:09;97512.63;;;9.43;80.40
79331;BME280;68797;49.782;19.054;2023-05-07T06:46:41;97518.16;;;9.34;80.53
79331;BME280;68797;49.782;19.054;2023-05-07T06:49:07;97514.91;;;9.20;81.19
79331;BME280;68797;49.782;19.054;2023-05-07T06:51:33;97511.69;;;8.64;82.77
79331;BME280;68797;49.782;19.054;2023-05-07T06:54:03;97529.41;;;8.60;83.27
79331;BME280;68797;49.782;19.054;2023-05-07T06:56:31;97534.88;;;8.51;85.05
79331;BME280;68797;49.782;19.054;2023-05-07T06:59:06;97527.72;;;8.58;83.89
79331;BME280;68797;49.782;19.054;2023-05-07T07:01:36;97528.25;;;8.73;83.96
79331;BME280;68797;49.782;19.054;2023-05-07T07:04:04;97539.75;;;8.72;83.37
79331;BME280;68797;49.782;19.054;2023-05-07T07:06:31;97544.28;;;8.67;84.31
79331;BME280;68797;49.782;19.054;2023-05-07T07:09:00;97545.22;;;8.65;85.01
79331;BME280;68797;49.782;19.054;2023-05-07T07:11:26;97532.00;;;8.63;84.49
79331;BME280;68797;49.782;19.054;2023-05-07T07:13:54;97543.38;;;8.68;83.80
79331;BME280;68797;49.782;19.054;2023-05-07T07:16:21;97561.28;;;8.53;85.11
79331;BME280;68797;49.782;19.054;2023-05-07T07:18:48;97556.00;;;8.53;85.73
79331;BME280;68797;49.782;19.054;2023-05-07T07:21:14;97560.13;;;8.67;84.94
79331;BME280;68797;49.782;19.054;2023-05-07T07:23:41;97542.78;;;8.53;85.22
79331;BME280;68797;49.782;19.054;2023-05-07T07:26:08;97554.97;;;8.61;84.89
79331;BME280;68797;49.782;19.054;2023-05-07T07:28:35;97551.97;;;8.32;86.70
79331;BME280;68797;49.782;19.054;2023-05-07T07:31:01;97560.63;;;8.41;86.23
79331;BME280;68797;49.782;19.054;2023-05-07T07:33:28;97568.25;;;8.58;85.91
79331;BME280;68797;49.782;19.054;2023-05-07T07:35:55;97558.44;;;8.65;85.28
79331;BME280;68797;49.782;19.054;2023-05-07T07:38:22;97562.75;;;8.69;85.11
79331;BME280;68797;49.782;19.054;2023-05-07T07:40:48;97562.78;;;8.67;84.29
79331;BME280;68797;49.782;19.054;2023-05-07T07:43:15;97576.94;;;8.63;84.72
79331;BME280;68797;49.782;19.054;2023-05-07T07:45:42;97579.59;;;8.65;84.77
79331;BME280;68797;49.782;19.054;2023-05-07T07:48:08;97571.00;;;8.54;85.21
79331;BME280;68797;49.782;19.054;2023-05-07T07:50:37;97587.69;;;8.56;85.21
79331;BME280;68797;49.782;19.054;2023-05-07T07:53:04;97590.47;;;8.48;84.94
79331;BME280;68797;49.782;19.054;2023-05-07T07:55:30;97589.59;;;8.48;85.40
79331;BME280;68797;49.782;19.054;2023-05-07T07:57:59;97588.59;;;8.55;85.12
79331;BME280;68797;49.782;19.054;2023-05-07T08:00:25;97595.69;;;8.51;84.65
79331;BME280;68797;49.782;19.054;2023-05-07T08:02:55;97594.16;;;8.39;85.40
79331;BME280;68797;49.782;19.054;2023-05-07T08:05:26;97596.78;;;8.39;85.39
79331;BME280;68797;49.782;19.054;2023-05-07T08:07:53;97596.97;;;8.27;86.08
79331;BME280;68797;49.782;19.054;2023-05-07T08:10:25;97606.66;;;8.28;86.06
79331;BME280;68797;49.782;19.054;2023-05-07T08:12:58;97604.94;;;8.26;86.31
79331;BME280;68797;49.782;19.054;2023-05-07T08:15:24;97607.84;;;8.10;86.98
79331;BME280;68797;49.782;19.054;2023-05-07T08:17:50;97602.56;;;8.09;87.16
79331;BME280;68797;49.782;19.054;2023-05-07T08:20:17;97603.72;;;7.93;86.38
79331;BME280;68797;49.782;19.054;2023-05-07T08:22:44;97610.72;;;7.95;86.07
79331;BME280;68797;49.782;19.054;2023-05-07T08:25:10;97621.13;;;8.06;86.27
79331;BME280;68797;49.782;19.054;2023-05-07T08:27:37;97628.28;;;7.98;85.90
79331;BME280;68797;49.782;19.054;2023-05-07T08:30:04;97627.72;;;7.79;87.27
79331;BME280;68797;49.782;19.054;2023-05-07T08:32:31;97623.53;;;7.63;87.39
79331;BME280;68797;49.782;19.054;2023-05-07T08:34:57;97631.97;;;7.26;89.18
79331;BME280;68797;49.782;19.054;2023-05-07T08:37:24;97624.72;;;7.43;89.50
79331;BME280;68797;49.782;19.054;2023-05-07T08:39:50;97632.38;;;7.62;88.79
79331;BME280;68797;49.782;19.054;2023-05-07T08:42:23;97622.69;;;7.62;87.84
79331;BME280;68797;49.782;19.054;2023-05-07T08:44:51;97642.78;;;7.72;87.06
79331;BME280;68797;49.782;19.054;2023-05-07T08:47:22;97642.22;;;7.49;88.53
79331;BME280;68797;49.782;19.054;2023-05-07T08:49:54;97630.91;;;7.41;89.10
79331;BME280;68797;49.782;19.054;2023-05-07T08:52:22;97646.53;;;7.57;88.39
79331;BME280;68797;49.782;19.054;2023-05-07T08:54:49;97653.53;;;7.60;87.74
79331;BME280;68797;49.782;19.054;2023-05-07T08:57:16;97653.44;;;7.65;87.68
79331;BME280;68797;49.782;19.054;2023-05-07T08:59:43;97658.56;;;7.75;87.12
79331;BME280;68797;49.782;19.054;2023-05-07T09:02:10;97655.34;;;7.56;87.66
79331;BME280;68797;49.782;19.054;2023-05-07T09:04:37;97667.38;;;7.08;89.15
79331;BME280;68797;49.782;19.054;2023-05-07T09:07:04;97663.06;;;7.01;89.56
79331;BME280;68797;49.782;19.054;2023-05-07T09:09:33;97679.97;;;6.83;91.20
79331;BME280;68797;49.782;19.054;2023-05-07T09:12:01;97669.09;;;7.12;90.94
79331;BME280;68797;49.782;19.054;2023-05-07T09:14:32;97679.47;;;7.26;88.77
79331;BME280;68797;49.782;19.054;2023-05-07T09:16:59;97667.00;;;7.39;89.11
79331;BME280;68797;49.782;19.054;2023-05-07T09:19:26;97686.09;;;7.61;88.03
79331;BME280;68797;49.782;19.054;2023-05-07T09:21:59;97678.16;;;7.61;87.73
79331;BME280;68797;49.782;19.054;2023-05-07T09:24:26;97685.22;;;7.60;86.70
79331;BME280;68797;49.782;19.054;2023-05-07T09:26:57;97684.13;;;7.75;87.44
79331;BME280;68797;49.782;19.054;2023-05-07T09:29:23;97688.34;;;7.88;86.59
79331;BME280;68797;49.782;19.054;2023-05-07T09:31:50;97690.13;;;7.88;85.71
79331;BME280;68797;49.782;19.054;2023-05-07T09:34:17;97685.88;;;7.77;86.24
79331;BME280;68797;49.782;19.054;2023-05-07T09:36:45;97690.63;;;7.49;87.25
79331;BME280;68797;49.782;19.054;2023-05-07T09:39:11;97698.28;;;7.71;87.85
79331;BME280;68797;49.782;19.054;2023-05-07T09:41:46;97701.59;;;7.85;86.64
79331;BME280;68797;49.782;19.054;2023-05-07T09:44:19;97691.13;;;7.79;85.65
79331;BME280;68797;49.782;19.054;2023-05-07T09:46:53;97699.09;;;7.74;86.17
79331;BME280;68797;49.782;19.054;2023-05-07T09:49:28;97700.66;;;7.89;85.62
79331;BME280;68797;49.782;19.054;2023-05-07T09:52:02;97704.66;;;8.16;84.73
79331;BME280;68797;49.782;19.054;2023-05-07T09:54:35;97704.59;;;8.22;83.47
79331;BME280;68797;49.782;19.054;2023-05-07T09:57:05;97701.03;;;8.23;84.59
79331;BME280;68797;49.782;19.054;2023-05-07T09:59:34;97705.63;;;8.09;84.58
79331;BME280;68797;49.782;19.054;2023-05-07T10:02:05;97710.09;;;8.05;84.84
79331;BME280;68797;49.782;19.054;2023-05-07T10:04:38;97709.03;;;8.19;84.71
79331;BME280;68797;49.782;19.054;2023-05-07T10:07:06;97709.34;;;7.97;84.12
79331;BME280;68797;49.782;19.054;2023-05-07T10:09:34;97716.28;;;8.04;84.64
79331;BME280;68797;49.782;19.054;2023-05-07T10:12:06;97720.44;;;8.22;84.42
79331;BME280;68797;49.782;19.054;2023-05-07T10:14:33;97721.69;;;7.98;83.53
79331;BME280;68797;49.782;19.054;2023-05-07T10:17:01;97722.78;;;7.80;85.94
79331;BME280;68797;49.782;19.054;2023-05-07T10:19:29;97718.44;;;7.78;84.74
79331;BME280;68797;49.782;19.054;2023-05-07T10:22:03;97719.31;;;7.78;85.00
79331;BME280;68797;49.782;19.054;2023-05-07T10:24:33;97734.13;;;7.89;85.23
79331;BME280;68797;49.782;19.054;2023-05-07T10:27:07;97722.72;;;7.85;84.35
79331;BME280;68797;49.782;19.054;2023-05-07T10:32:35;97735.53;;;8.14;85.01
79331;BME280;68797;49.782;19.054;2023-05-07T10:35:06;97733.69;;;8.21;84.08
79331;BME280;68797;49.782;19.054;2023-05-07T10:37:36;97738.91;;;8.24;82.55
79331;BME280;68797;49.782;19.054;2023-05-07T10:40:03;97740.78;;;8.15;82.79
79331;BME280;68797;49.782;19.054;2023-05-07T10:42:32;97741.94;;;7.96;84.56
79331;BME280;68797;49.782;19.054;2023-05-07T10:45:14;97745.50;;;7.94;84.78
79331;BME280;68797;49.782;19.054;2023-05-07T10:50:31;97739.44;;;7.85;84.18
79331;BME280;68797;49.782;19.054;2023-05-07T10:58:51;97743.53;;;7.40;85.65
79331;BME280;68797;49.782;19.054;2023-05-07T11:01:53;97741.50;;;7.62;85.59
79331;BME280;68797;49.782;19.054;2023-05-07T11:04:25;97729.41;;;7.46;85.14
79331;BME280;68797;49.782;19.054;2023-05-07T11:07:35;97747.63;;;7.67;86.62
79331;BME280;68797;49.782;19.054;2023-05-07T11:10:07;97742.38;;;7.64;84.65
79331;BME280;68797;49.782;19.054;2023-05-07T11:12:52;97738.13;;;7.54;86.21
79331;BME280;68797;49.782;19.054;2023-05-07T11:15:50;97758.69;;;7.24;85.11
79331;BME280;68797;49.782;19.054;2023-05-07T11:18:51;97757.59;;;7.42;85.36
79331;BME280;68797;49.782;19.054;2023-05-07T11:21:38;97759.97;;;7.64;85.75
79331;BME280;68797;49.782;19.054;2023-05-07T11:24:10;97747.72;;;7.60;83.89
79331;BME280;68797;49.782;19.054;2023-05-07T11:26:49;97752.06;;;7.64;84.59
79331;BME280;68797;49.782;19.054;2023-05-07T11:29:17;97766.91;;;7.72;82.36
79331;BME280;68797;49.782;19.054;2023-05-07T11:31:49;97758.97;;;7.74;83.50
79331;BME280;68797;49.782;19.054;2023-05-07T11:34:25;97758.84;;;7.84;82.66
79331;BME280;68797;49.782;19.054;2023-05-07T11:36:55;97761.56;;;7.78;83.80
79331;BME280;68797;49.782;19.054;2023-05-07T11:39:32;97772.13;;;7.78;82.35
79331;BME280;68797;49.782;19.054;2023-05-07T11:42:02;97783.97;;;7.45;82.73
79331;BME280;68797;49.782;19.054;2023-05-07T11:44:44;97780.34;;;7.55;83.41
79331;BME280;68797;49.782;19.054;2023-05-07T11:47:17;97777.53;;;7.69;83.35
79331;BME280;68797;49.782;19.054;2023-05-07T11:49:45;97773.94;;;7.76;82.83
79331;BME280;68797;49.782;19.054;2023-05-07T11:52:13;97779.47;;;7.53;82.94
79331;BME280;68797;49.782;19.054;2023-05-07T11:54:39;97778.69;;;7.45;84.28
79331;BME280;68797;49.782;19.054;2023-05-07T11:57:05;97782.84;;;7.68;84.49
79331;BME280;68797;49.782;19.054;2023-05-07T11:59:39;97784.75;;;7.52;83.85
79331;BME280;68797;49.782;19.054;2023-05-07T12:02:07;97783.63;;;6.93;85.04
79331;BME280;68797;49.782;19.054;2023-05-07T12:04:33;97786.19;;;6.97;85.49
79331;BME280;68797;49.782;19.054;2023-05-07T12:07:00;97789.56;;;7.15;84.90
79331;BME280;68797;49.782;19.054;2023-05-07T12:09:26;97799.28;;;7.08;84.25
79331;BME280;68797;49.782;19.054;2023-05-07T12:11:53;97797.84;;;6.74;87.24
79331;BME280;68797;49.782;19.054;2023-05-07T12:14:19;97792.53;;;6.80;86.90
79331;BME280;68797;49.782;19.054;2023-05-07T12:16:46;97787.38;;;6.66;86.49
79331;BME280;68797;49.782;19.054;2023-05-07T12:19:12;97789.25;;;6.50;86.62
79331;BME280;68797;49.782;19.054;2023-05-07T12:21:38;97799.84;;;6.44;87.51
79331;BME280;68797;49.782;19.054;2023-05-07T12:24:05;97798.25;;;6.22;88.00
79331;BME280;68797;49.782;19.054;2023-05-07T12:26:32;97797.16;;;6.49;87.43
79331;BME280;68797;49.782;19.054;2023-05-07T12:28:58;97795.41;;;6.48;86.62
79331;BME280;68797;49.782;19.054;2023-05-07T12:31:27;97805.97;;;6.48;86.07
79331;BME280;68797;49.782;19.054;2023-05-07T12:33:53;97807.72;;;6.49;86.83
79331;BME280;68797;49.782;19.054;2023-05-07T12:36:20;97808.63;;;6.46;85.76
79331;BME280;68797;49.782;19.054;2023-05-07T12:38:49;97801.59;;;6.47;86.03
79331;BME280;68797;49.782;19.054;2023-05-07T12:41:16;97810.31;;;6.56;85.57
79331;BME280;68797;49.782;19.054;2023-05-07T12:43:45;97810.22;;;6.64;85.07
79331;BME280;68797;49.782;19.054;2023-05-07T12:46:12;97820.78;;;6.67;84.04
79331;BME280;68797;49.782;19.054;2023-05-07T12:48:45;97816.38;;;6.67;86.02
79331;BME280;68797;49.782;19.054;2023-05-07T12:51:12;97814.53;;;6.74;85.24
79331;BME280;68797;49.782;19.054;2023-05-07T12:53:40;97823.25;;;6.85;84.65
79331;BME280;68797;49.782;19.054;2023-05-07T12:56:08;97815.47;;;6.70;84.91
79331;BME280;68797;49.782;19.054;2023-05-07T12:58:35;97818.16;;;6.61;86.07
79331;BME280;68797;49.782;19.054;2023-05-07T13:01:06;97817.22;;;6.69;85.80
79331;BME280;68797;49.782;19.054;2023-05-07T13:03:37;97817.22;;;6.69;85.63
79331;BME280;68797;49.782;19.054;2023-05-07T13:06:08;97818.94;;;6.77;85.54
79331;BME280;68797;49.782;19.054;2023-05-07T13:08:40;97819.09;;;6.54;85.91
79331;BME280;68797;49.782;19.054;2023-05-07T13:11:09;97820.84;;;6.58;86.56
79331;BME280;68797;49.782;19.054;2023-05-07T13:13:37;97827.03;;;6.49;85.66